Naikai2 — JD2433 — position and weather

sailwx.info

Track history (hours):
 
Tides and Currents Weather Stations Pressure Air Temp Water Temp Dewpoint Dewpoint Depression Visibility Wind Speed Wind Dir Waves Ship Positions

Naikai2

Last reported at 2014-Nov-21 10:26 UTC. Time now 2014-Nov-22 18:00 UTC.
Position N 34°37' E 135°09'.

Length 28 m; draft 2.2 m.

Type: Other ship. MMSI: 431000283.

Date/timePositionNaut miles runAvg speedWind from/ knotsBaromVisibWave heightAir tempDewpointWater temp
2014-Nov-21 10:26N 34°37' E 135°09'1315.1
2014-Nov-21 09:33N 34°25' E 135°03'4 2.4
2014-Nov-21 08:05N 34°22' E 134°60'713.1
2014-Nov-21 07:34N 34°29' E 135°03'8 7.7
2014-Nov-21 06:31N 34°36' E 135°02'7 0.2
2014-Nov-20 01:25N 34°35' E 134°53'910.4
2014-Nov-20 00:33N 34°35' E 135°04'6 6.1
2014-Nov-19 23:33N 34°29' E 135°06'1110.5
2014-Nov-19 22:29N 34°19' E 135°00'8 9.1
2014-Nov-19 21:33N 34°11' E 135°01'4 0.2
2014-Nov-19 04:33N 34°14' E 135°03'1010.1
2014-Nov-19 03:31N 34°24' E 135°01'1110.9
2014-Nov-19 02:32N 34°35' E 135°04'12 3.0
2014-Nov-18 22:30N 34°39' E 134°50'1415.2
2014-Nov-18 21:33N 34°37' E 135°08'3 0.2
2014-Nov-18 06:25N 34°38' E 135°11'1213.9
2014-Nov-18 05:33N 34°34' E 135°24'2 2.2
2014-Nov-18 04:30N 34°33' E 135°21'4 4.4
2014-Nov-18 03:34N 34°36' E 135°17'7 6.7
2014-Nov-18 02:33N 34°40' E 135°11'6 0.3
2014-Nov-17 05:33N 34°37' E 135°04'7 1.7
2014-Nov-17 01:19N 34°36' E 134°56'810.6
2014-Nov-17 00:33N 34°35' E 135°06'5 5.0
2014-Nov-16 23:33N 34°30' E 135°06'1512.9
2014-Nov-16 22:22N 34°16' E 134°59'2 2.1
2014-Nov-16 21:31N 34°14' E 134°58'1313.7
2014-Nov-16 20:33N 34°27' E 135°01'1413.6
2014-Nov-16 19:33N 34°39' E 135°10'5 0.4
2014-Nov-16 05:33N 34°37' E 135°05'10 2.5
2014-Nov-16 01:29N 34°35' E 134°52'1111.9
2014-Nov-16 00:33N 34°35' E 135°06'7 6.6
2014-Nov-15 23:33N 34°29' E 135°06'1412.9
2014-Nov-15 22:30N 34°16' E 134°59'3 2.6
2014-Nov-15 21:33N 34°14' E 135°00'1413.1
2014-Nov-15 20:31N 34°27' E 135°02'1313.7
2014-Nov-15 19:33N 34°39' E 135°10'1 0.1
2014-Nov-15 03:18N 34°38' E 135°11'1114.4
2014-Nov-15 02:33N 34°34' E 135°23'2 2.0
2014-Nov-15 01:31N 34°33' E 135°21'4 3.7
2014-Nov-15 00:33N 34°35' E 135°17'7 7.0
2014-Nov-14 23:33N 34°40' E 135°11'4 0.4
2014-Nov-14 12:33N 34°36' E 135°09'1514.7
2014-Nov-14 11:32N 34°22' E 135°03'6 6.1
2014-Nov-14 10:30N 34°17' E 134°58'1415.1
2014-Nov-14 09:33N 34°31' E 135°05'4 3.8
2014-Nov-14 08:33N 34°34' E 135°02'7 6.6
2014-Nov-14 07:31N 34°28' E 134°60'11 9.9
2014-Nov-14 06:22N 34°16' E 134°58'6 5.8
2014-Nov-14 05:18N 34°22' E 135°00'1114.8
2014-Nov-14 04:33N 34°32' E 135°07'7 7.0
2014-Nov-14 03:33N 34°37' E 135°01'5 0.2
2014-Nov-13 01:24N 34°36' E 134°55'911.0
2014-Nov-13 00:33N 34°35' E 135°07'6 5.7
2014-Nov-12 23:33N 34°29' E 135°06'1613.4
2014-Nov-12 22:21N 34°15' E 134°59'1 1.3
2014-Nov-12 21:31N 34°14' E 134°59'1515.0
2014-Nov-12 20:33N 34°28' E 135°01'1413.7
2014-Nov-12 19:33N 34°39' E 135°10'1 0.1
2014-Nov-12 00:33N 34°40' E 135°11'  
Track history (hours):
 
Tides and Currents Weather Stations Pressure Air Temp Water Temp Dewpoint Dewpoint Depression Visibility Wind Speed Wind Dir Waves Ship Positions

Naikai2

Last reported at 2014-Nov-21 10:26 UTC. Time now 2014-Nov-22 18:00 UTC.
Position N 34°37' E 135°09'.

Length 28 m; draft 2.2 m.

Type: Other ship. MMSI: 431000283.

Date/timePositionNaut miles runAvg speedWind from/ knotsBaromVisibWave heightAir tempDewpointWater temp
2014-Nov-21 10:26N 34°37' E 135°09'1315.1
2014-Nov-21 09:33N 34°25' E 135°03'4 2.4
2014-Nov-21 08:05N 34°22' E 134°60'713.1
2014-Nov-21 07:34N 34°29' E 135°03'8 7.7
2014-Nov-21 06:31N 34°36' E 135°02'7 0.2
2014-Nov-20 01:25N 34°35' E 134°53'910.4
2014-Nov-20 00:33N 34°35' E 135°04'6 6.1
2014-Nov-19 23:33N 34°29' E 135°06'1110.5
2014-Nov-19 22:29N 34°19' E 135°00'8 9.1
2014-Nov-19 21:33N 34°11' E 135°01'4 0.2
2014-Nov-19 04:33N 34°14' E 135°03'1010.1
2014-Nov-19 03:31N 34°24' E 135°01'1110.9
2014-Nov-19 02:32N 34°35' E 135°04'12 3.0
2014-Nov-18 22:30N 34°39' E 134°50'1415.2
2014-Nov-18 21:33N 34°37' E 135°08'3 0.2
2014-Nov-18 06:25N 34°38' E 135°11'1213.9
2014-Nov-18 05:33N 34°34' E 135°24'2 2.2
2014-Nov-18 04:30N 34°33' E 135°21'4 4.4
2014-Nov-18 03:34N 34°36' E 135°17'7 6.7
2014-Nov-18 02:33N 34°40' E 135°11'6 0.3
2014-Nov-17 05:33N 34°37' E 135°04'7 1.7
2014-Nov-17 01:19N 34°36' E 134°56'810.6
2014-Nov-17 00:33N 34°35' E 135°06'5 5.0
2014-Nov-16 23:33N 34°30' E 135°06'1512.9
2014-Nov-16 22:22N 34°16' E 134°59'2 2.1
2014-Nov-16 21:31N 34°14' E 134°58'1313.7
2014-Nov-16 20:33N 34°27' E 135°01'1413.6
2014-Nov-16 19:33N 34°39' E 135°10'5 0.4
2014-Nov-16 05:33N 34°37' E 135°05'10 2.5
2014-Nov-16 01:29N 34°35' E 134°52'1111.9
2014-Nov-16 00:33N 34°35' E 135°06'7 6.6
2014-Nov-15 23:33N 34°29' E 135°06'1412.9
2014-Nov-15 22:30N 34°16' E 134°59'3 2.6
2014-Nov-15 21:33N 34°14' E 135°00'1413.1
2014-Nov-15 20:31N 34°27' E 135°02'1313.7
2014-Nov-15 19:33N 34°39' E 135°10'1 0.1
2014-Nov-15 03:18N 34°38' E 135°11'1114.4
2014-Nov-15 02:33N 34°34' E 135°23'2 2.0
2014-Nov-15 01:31N 34°33' E 135°21'4 3.7
2014-Nov-15 00:33N 34°35' E 135°17'7 7.0
2014-Nov-14 23:33N 34°40' E 135°11'4 0.4
2014-Nov-14 12:33N 34°36' E 135°09'1514.7
2014-Nov-14 11:32N 34°22' E 135°03'6 6.1
2014-Nov-14 10:30N 34°17' E 134°58'1415.1
2014-Nov-14 09:33N 34°31' E 135°05'4 3.8
2014-Nov-14 08:33N 34°34' E 135°02'7 6.6
2014-Nov-14 07:31N 34°28' E 134°60'11 9.9
2014-Nov-14 06:22N 34°16' E 134°58'6 5.8
2014-Nov-14 05:18N 34°22' E 135°00'1114.8
2014-Nov-14 04:33N 34°32' E 135°07'7 7.0
2014-Nov-14 03:33N 34°37' E 135°01'5 0.2
2014-Nov-13 01:24N 34°36' E 134°55'911.0
2014-Nov-13 00:33N 34°35' E 135°07'6 5.7
2014-Nov-12 23:33N 34°29' E 135°06'1613.4
2014-Nov-12 22:21N 34°15' E 134°59'1 1.3
2014-Nov-12 21:31N 34°14' E 134°59'1515.0
2014-Nov-12 20:33N 34°28' E 135°01'1413.7
2014-Nov-12 19:33N 34°39' E 135°10'1 0.1
2014-Nov-12 00:33N 34°40' E 135°11'  

Dump ship's entire track history